sensor_id;sensor_type;location;lat;lon;timestamp;pressure;altitude;pressure_sealevel;temperature;humidity
76128;BME280;64873;50.102;14.434;2024-01-15T00:01:25;97648.16;;;0.11;72.41
76128;BME280;64873;50.102;14.434;2024-01-15T00:03:51;97649.97;;;0.10;72.98
76128;BME280;64873;50.102;14.434;2024-01-15T00:06:16;97638.47;;;0.11;73.07
76128;BME280;64873;50.102;14.434;2024-01-15T00:08:42;97645.41;;;0.19;72.44
76128;BME280;64873;50.102;14.434;2024-01-15T00:11:07;97636.59;;;0.05;72.69
76128;BME280;64873;50.102;14.434;2024-01-15T00:13:32;97615.31;;;-0.07;73.23
76128;BME280;64873;50.102;14.434;2024-01-15T00:15:58;97627.88;;;-0.02;73.35
76128;BME280;64873;50.102;14.434;2024-01-15T00:18:23;97621.06;;;-0.18;73.99
76128;BME280;64873;50.102;14.434;2024-01-15T00:20:49;97621.66;;;-0.22;74.39
76128;BME280;64873;50.102;14.434;2024-01-15T00:23:14;97626.16;;;-0.16;73.94
76128;BME280;64873;50.102;14.434;2024-01-15T00:25:41;97618.78;;;-0.28;74.92
76128;BME280;64873;50.102;14.434;2024-01-15T00:28:06;97618.78;;;-0.28;74.30
76128;BME280;64873;50.102;14.434;2024-01-15T00:30:31;97606.38;;;-0.40;74.39
76128;BME280;64873;50.102;14.434;2024-01-15T00:32:57;97617.16;;;-0.29;74.96
76128;BME280;64873;50.102;14.434;2024-01-15T00:35:22;97600.25;;;-0.19;73.81
76128;BME280;64873;50.102;14.434;2024-01-15T00:37:48;97611.34;;;0.04;73.53
76128;BME280;64873;50.102;14.434;2024-01-15T00:40:13;97615.56;;;-0.02;74.07
76128;BME280;64873;50.102;14.434;2024-01-15T00:42:38;97611.22;;;0.12;72.54
76128;BME280;64873;50.102;14.434;2024-01-15T00:45:04;97606.66;;;-0.01;73.37
76128;BME280;64873;50.102;14.434;2024-01-15T00:47:31;97595.88;;;-0.12;73.21
76128;BME280;64873;50.102;14.434;2024-01-15T00:49:57;97580.78;;;-0.32;73.66
76128;BME280;64873;50.102;14.434;2024-01-15T00:52:22;97592.06;;;-0.10;73.32
76128;BME280;64873;50.102;14.434;2024-01-15T00:54:48;97584.00;;;-0.08;73.19
76128;BME280;64873;50.102;14.434;2024-01-15T00:57:13;97585.38;;;-0.12;73.06
76128;BME280;64873;50.102;14.434;2024-01-15T00:59:38;97577.09;;;-0.16;73.00
76128;BME280;64873;50.102;14.434;2024-01-15T01:02:04;97596.75;;;-0.05;72.81
76128;BME280;64873;50.102;14.434;2024-01-15T01:04:30;97577.28;;;-0.17;72.92
76128;BME280;64873;50.102;14.434;2024-01-15T01:06:55;97552.53;;;-0.30;72.99
76128;BME280;64873;50.102;14.434;2024-01-15T01:09:20;97583.97;;;-0.15;73.06
76128;BME280;64873;50.102;14.434;2024-01-15T01:11:46;97579.28;;;-0.19;73.25
76128;BME280;64873;50.102;14.434;2024-01-15T01:14:11;97561.91;;;-0.20;72.90
76128;BME280;64873;50.102;14.434;2024-01-15T01:16:37;97557.16;;;-0.32;72.93
76128;BME280;64873;50.102;14.434;2024-01-15T01:19:05;97562.28;;;-0.23;71.85
76128;BME280;64873;50.102;14.434;2024-01-15T01:21:31;97570.78;;;-0.21;72.28
76128;BME280;64873;50.102;14.434;2024-01-15T01:23:56;97554.94;;;-0.35;73.14
76128;BME280;64873;50.102;14.434;2024-01-15T01:26:22;97544.81;;;-0.38;72.11
76128;BME280;64873;50.102;14.434;2024-01-15T01:28:47;97572.25;;;-0.12;72.02
76128;BME280;64873;50.102;14.434;2024-01-15T01:31:13;97552.78;;;-0.24;72.59
76128;BME280;64873;50.102;14.434;2024-01-15T01:33:41;97566.38;;;-0.14;71.87
76128;BME280;64873;50.102;14.434;2024-01-15T01:36:10;97553.66;;;-0.17;72.40
76128;BME280;64873;50.102;14.434;2024-01-15T01:38:36;97535.81;;;-0.29;71.99
76128;BME280;64873;50.102;14.434;2024-01-15T01:41:02;97557.13;;;-0.10;71.95
76128;BME280;64873;50.102;14.434;2024-01-15T01:43:27;97553.88;;;-0.12;71.24
76128;BME280;64873;50.102;14.434;2024-01-15T01:45:55;97555.03;;;-0.21;71.98
76128;BME280;64873;50.102;14.434;2024-01-15T01:48:23;97553.06;;;-0.13;71.66
76128;BME280;64873;50.102;14.434;2024-01-15T01:50:50;97540.53;;;-0.17;71.98
76128;BME280;64873;50.102;14.434;2024-01-15T01:53:15;97540.47;;;-0.24;71.47
76128;BME280;64873;50.102;14.434;2024-01-15T01:55:41;97567.25;;;-0.07;71.76
76128;BME280;64873;50.102;14.434;2024-01-15T01:58:07;97558.16;;;-0.11;71.74
76128;BME280;64873;50.102;14.434;2024-01-15T02:00:33;97554.59;;;-0.25;71.46
76128;BME280;64873;50.102;14.434;2024-01-15T02:03:00;97557.09;;;-0.17;71.22
76128;BME280;64873;50.102;14.434;2024-01-15T02:05:26;97551.16;;;-0.25;71.61
76128;BME280;64873;50.102;14.434;2024-01-15T02:07:52;97547.41;;;-0.16;71.14
76128;BME280;64873;50.102;14.434;2024-01-15T02:10:17;97556.69;;;-0.14;70.63
76128;BME280;64873;50.102;14.434;2024-01-15T02:12:43;97546.41;;;-0.15;71.38
76128;BME280;64873;50.102;14.434;2024-01-15T02:15:09;97551.41;;;-0.20;70.85
76128;BME280;64873;50.102;14.434;2024-01-15T02:17:34;97549.84;;;-0.15;70.97
76128;BME280;64873;50.102;14.434;2024-01-15T02:20:00;97560.66;;;-0.24;70.50
76128;BME280;64873;50.102;14.434;2024-01-15T02:22:25;97530.81;;;-0.23;70.95
76128;BME280;64873;50.102;14.434;2024-01-15T02:24:50;97553.84;;;-0.19;71.00
76128;BME280;64873;50.102;14.434;2024-01-15T02:27:16;97547.78;;;-0.19;70.55
76128;BME280;64873;50.102;14.434;2024-01-15T02:29:42;97551.41;;;-0.20;70.69
76128;BME280;64873;50.102;14.434;2024-01-15T02:32:08;97548.63;;;-0.12;71.15
76128;BME280;64873;50.102;14.434;2024-01-15T02:34:34;97532.59;;;0.04;70.66
76128;BME280;64873;50.102;14.434;2024-01-15T02:37:00;97513.41;;;-0.24;70.70
76128;BME280;64873;50.102;14.434;2024-01-15T02:39:25;97501.16;;;-0.17;69.99
76128;BME280;64873;50.102;14.434;2024-01-15T02:42:09;97524.59;;;-0.16;70.71
76128;BME280;64873;50.102;14.434;2024-01-15T02:44:35;97525.75;;;-0.18;70.65
76128;BME280;64873;50.102;14.434;2024-01-15T02:47:00;97522.28;;;-0.25;70.57
76128;BME280;64873;50.102;14.434;2024-01-15T02:49:26;97510.53;;;-0.30;70.79
76128;BME280;64873;50.102;14.434;2024-01-15T02:51:51;97521.63;;;-0.34;71.59
76128;BME280;64873;50.102;14.434;2024-01-15T02:54:16;97507.09;;;-0.30;70.93
76128;BME280;64873;50.102;14.434;2024-01-15T02:56:42;97497.34;;;-0.43;70.62
76128;BME280;64873;50.102;14.434;2024-01-15T02:59:07;97504.44;;;-0.37;71.22
76128;BME280;64873;50.102;14.434;2024-01-15T03:01:33;97507.50;;;-0.33;70.78
76128;BME280;64873;50.102;14.434;2024-01-15T03:03:58;97514.22;;;-0.24;70.73
76128;BME280;64873;50.102;14.434;2024-01-15T03:06:23;97516.03;;;-0.24;71.51
76128;BME280;64873;50.102;14.434;2024-01-15T03:08:49;97512.28;;;-0.15;70.12
76128;BME280;64873;50.102;14.434;2024-01-15T03:11:14;97484.00;;;-0.41;71.64
76128;BME280;64873;50.102;14.434;2024-01-15T03:13:40;97518.28;;;-0.21;71.03
76128;BME280;64873;50.102;14.434;2024-01-15T03:16:05;97483.00;;;-0.47;70.39
76128;BME280;64873;50.102;14.434;2024-01-15T03:18:31;97489.84;;;-0.46;70.62
76128;BME280;64873;50.102;14.434;2024-01-15T03:20:57;97476.63;;;-0.59;70.62
76128;BME280;64873;50.102;14.434;2024-01-15T03:23:22;97489.63;;;-0.51;71.40
76128;BME280;64873;50.102;14.434;2024-01-15T03:25:47;97467.91;;;-0.66;72.29
76128;BME280;64873;50.102;14.434;2024-01-15T03:28:13;97470.41;;;-0.58;71.92
76128;BME280;64873;50.102;14.434;2024-01-15T03:30:38;97467.78;;;-0.58;71.42
76128;BME280;64873;50.102;14.434;2024-01-15T03:33:04;97453.50;;;-0.49;71.49
76128;BME280;64873;50.102;14.434;2024-01-15T03:35:29;97461.09;;;-0.61;71.58
76128;BME280;64873;50.102;14.434;2024-01-15T03:37:56;97463.03;;;-0.69;71.32
76128;BME280;64873;50.102;14.434;2024-01-15T03:40:21;97464.72;;;-0.62;71.52
76128;BME280;64873;50.102;14.434;2024-01-15T03:42:46;97467.53;;;-0.63;70.63
76128;BME280;64873;50.102;14.434;2024-01-15T03:45:12;97477.00;;;-0.62;70.58
76128;BME280;64873;50.102;14.434;2024-01-15T03:47:37;97480.88;;;-0.58;70.94
76128;BME280;64873;50.102;14.434;2024-01-15T03:50:03;97462.41;;;-0.71;69.98
76128;BME280;64873;50.102;14.434;2024-01-15T03:52:28;97494.97;;;-0.59;70.36
76128;BME280;64873;50.102;14.434;2024-01-15T03:54:54;97516.84;;;-0.52;69.70
76128;BME280;64873;50.102;14.434;2024-01-15T03:57:20;97497.00;;;-0.61;69.86
76128;BME280;64873;50.102;14.434;2024-01-15T03:59:45;97487.06;;;-0.66;69.90
76128;BME280;64873;50.102;14.434;2024-01-15T04:02:12;97490.38;;;-0.57;70.43
76128;BME280;64873;50.102;14.434;2024-01-15T04:04:41;97505.47;;;-0.59;69.33
76128;BME280;64873;50.102;14.434;2024-01-15T04:07:07;97502.28;;;-0.55;69.99
76128;BME280;64873;50.102;14.434;2024-01-15T04:09:32;97499.41;;;-0.60;70.19
76128;BME280;64873;50.102;14.434;2024-01-15T04:11:58;97513.50;;;-0.67;69.67
76128;BME280;64873;50.102;14.434;2024-01-15T04:14:24;97508.50;;;-0.62;70.03
76128;BME280;64873;50.102;14.434;2024-01-15T04:16:49;97495.75;;;-0.65;69.51
76128;BME280;64873;50.102;14.434;2024-01-15T04:19:14;97508.69;;;-0.64;69.59
76128;BME280;64873;50.102;14.434;2024-01-15T04:21:40;97503.38;;;-0.70;69.45
76128;BME280;64873;50.102;14.434;2024-01-15T04:24:06;97518.47;;;-0.72;69.99
76128;BME280;64873;50.102;14.434;2024-01-15T04:26:32;97509.88;;;-0.66;69.94
76128;BME280;64873;50.102;14.434;2024-01-15T04:28:57;97514.25;;;-0.73;70.26
76128;BME280;64873;50.102;14.434;2024-01-15T04:31:25;97483.53;;;-0.79;70.17
76128;BME280;64873;50.102;14.434;2024-01-15T04:33:52;97494.88;;;-0.72;70.35
76128;BME280;64873;50.102;14.434;2024-01-15T04:36:17;97475.06;;;-0.82;70.45
76128;BME280;64873;50.102;14.434;2024-01-15T04:38:43;97488.38;;;-0.76;70.10
76128;BME280;64873;50.102;14.434;2024-01-15T04:41:12;97486.16;;;-0.79;70.74
76128;BME280;64873;50.102;14.434;2024-01-15T04:43:38;97486.59;;;-0.76;69.87
76128;BME280;64873;50.102;14.434;2024-01-15T04:46:05;97486.72;;;-0.84;70.51
76128;BME280;64873;50.102;14.434;2024-01-15T04:48:31;97468.88;;;-0.95;70.44
76128;BME280;64873;50.102;14.434;2024-01-15T04:50:56;97505.72;;;-0.82;70.64
76128;BME280;64873;50.102;14.434;2024-01-15T04:53:22;97481.81;;;-0.94;70.11
76128;BME280;64873;50.102;14.434;2024-01-15T04:55:47;97470.06;;;-0.98;71.39
76128;BME280;64873;50.102;14.434;2024-01-15T04:58:13;97479.00;;;-0.92;70.55
76128;BME280;64873;50.102;14.434;2024-01-15T05:00:38;97469.66;;;-0.95;70.43
76128;BME280;64873;50.102;14.434;2024-01-15T05:03:04;97486.28;;;-0.88;70.35
76128;BME280;64873;50.102;14.434;2024-01-15T05:05:29;97467.63;;;-0.99;70.04
76128;BME280;64873;50.102;14.434;2024-01-15T05:07:55;97490.94;;;-0.83;70.68
76128;BME280;64873;50.102;14.434;2024-01-15T05:10:20;97469.41;;;-1.00;70.11
76128;BME280;64873;50.102;14.434;2024-01-15T05:12:46;97499.56;;;-0.89;70.12
76128;BME280;64873;50.102;14.434;2024-01-15T05:15:11;97495.94;;;-0.88;70.60
76128;BME280;64873;50.102;14.434;2024-01-15T05:17:36;97504.50;;;-0.79;70.29
76128;BME280;64873;50.102;14.434;2024-01-15T05:20:02;97509.75;;;-0.79;70.40
76128;BME280;64873;50.102;14.434;2024-01-15T05:22:28;97516.50;;;-0.70;69.87
76128;BME280;64873;50.102;14.434;2024-01-15T05:24:54;97507.50;;;-0.83;70.43
76128;BME280;64873;50.102;14.434;2024-01-15T05:27:19;97489.47;;;-0.92;70.28
76128;BME280;64873;50.102;14.434;2024-01-15T05:29:44;97525.03;;;-0.83;69.55
76128;BME280;64873;50.102;14.434;2024-01-15T05:32:10;97532.75;;;-0.82;69.53
76128;BME280;64873;50.102;14.434;2024-01-15T05:34:35;97532.00;;;-0.75;69.96
76128;BME280;64873;50.102;14.434;2024-01-15T05:37:01;97546.53;;;-0.73;69.78
76128;BME280;64873;50.102;14.434;2024-01-15T05:39:26;97541.56;;;-0.83;69.62
76128;BME280;64873;50.102;14.434;2024-01-15T05:41:51;97540.34;;;-0.87;69.79
76128;BME280;64873;50.102;14.434;2024-01-15T05:44:17;97516.00;;;-1.02;70.15
76128;BME280;64873;50.102;14.434;2024-01-15T05:46:43;97547.03;;;-0.84;70.26
76128;BME280;64873;50.102;14.434;2024-01-15T05:49:08;97541.03;;;-0.78;70.39
76128;BME280;64873;50.102;14.434;2024-01-15T05:51:33;97541.56;;;-0.83;69.52
76128;BME280;64873;50.102;14.434;2024-01-15T05:53:59;97539.97;;;-0.84;70.06
76128;BME280;64873;50.102;14.434;2024-01-15T05:56:24;97534.88;;;-0.70;69.56
76128;BME280;64873;50.102;14.434;2024-01-15T05:58:50;97527.81;;;-0.70;69.04
76128;BME280;64873;50.102;14.434;2024-01-15T06:01:15;97526.09;;;-0.77;69.45
76128;BME280;64873;50.102;14.434;2024-01-15T06:03:41;97505.47;;;-0.87;69.72
76128;BME280;64873;50.102;14.434;2024-01-15T06:06:08;97527.50;;;-0.82;69.19
76128;BME280;64873;50.102;14.434;2024-01-15T06:08:34;97535.78;;;-0.78;69.61
76128;BME280;64873;50.102;14.434;2024-01-15T06:10:59;97506.81;;;-0.91;69.26
76128;BME280;64873;50.102;14.434;2024-01-15T06:13:24;97518.88;;;-0.97;69.29
76128;BME280;64873;50.102;14.434;2024-01-15T06:15:50;97508.56;;;-0.98;69.74
76128;BME280;64873;50.102;14.434;2024-01-15T06:18:16;97516.50;;;-0.92;69.39
76128;BME280;64873;50.102;14.434;2024-01-15T06:20:41;97492.28;;;-1.15;69.74
76128;BME280;64873;50.102;14.434;2024-01-15T06:23:07;97517.59;;;-1.01;69.65
76128;BME280;64873;50.102;14.434;2024-01-15T06:25:33;97533.22;;;-1.14;69.86
76128;BME280;64873;50.102;14.434;2024-01-15T06:27:58;97531.19;;;-1.12;69.88
76128;BME280;64873;50.102;14.434;2024-01-15T06:30:24;97509.28;;;-1.26;70.64
76128;BME280;64873;50.102;14.434;2024-01-15T06:32:49;97525.09;;;-1.19;70.61
76128;BME280;64873;50.102;14.434;2024-01-15T06:35:15;97533.34;;;-1.22;70.12
76128;BME280;64873;50.102;14.434;2024-01-15T06:37:40;97523.47;;;-1.20;71.12
76128;BME280;64873;50.102;14.434;2024-01-15T06:40:06;97534.31;;;-1.23;71.38
76128;BME280;64873;50.102;14.434;2024-01-15T06:42:32;97544.91;;;-1.31;71.42
76128;BME280;64873;50.102;14.434;2024-01-15T06:44:58;97555.38;;;-1.31;70.82
76128;BME280;64873;50.102;14.434;2024-01-15T06:47:23;97544.47;;;-1.50;71.56
76128;BME280;64873;50.102;14.434;2024-01-15T06:49:49;97548.56;;;-1.11;72.35
76128;BME280;64873;50.102;14.434;2024-01-15T06:52:15;97549.31;;;-1.17;70.90
76128;BME280;64873;50.102;14.434;2024-01-15T06:54:41;97560.06;;;-1.27;70.65
76128;BME280;64873;50.102;14.434;2024-01-15T06:57:06;97561.25;;;-1.29;70.88
76128;BME280;64873;50.102;14.434;2024-01-15T06:59:32;97533.72;;;-1.40;71.10
76128;BME280;64873;50.102;14.434;2024-01-15T07:01:58;97536.25;;;-1.47;71.67
76128;BME280;64873;50.102;14.434;2024-01-15T07:04:24;97549.41;;;-1.25;71.44
76128;BME280;64873;50.102;14.434;2024-01-15T07:06:49;97572.09;;;-1.32;71.16
76128;BME280;64873;50.102;14.434;2024-01-15T07:09:15;97571.84;;;-1.38;71.19
76128;BME280;64873;50.102;14.434;2024-01-15T07:11:45;97571.56;;;-1.43;71.48
76128;BME280;64873;50.102;14.434;2024-01-15T07:14:12;97584.94;;;-1.38;71.06
76128;BME280;64873;50.102;14.434;2024-01-15T07:16:37;97593.13;;;-1.26;72.03
76128;BME280;64873;50.102;14.434;2024-01-15T07:19:03;97614.47;;;-1.29;71.25
76128;BME280;64873;50.102;14.434;2024-01-15T07:21:28;97601.94;;;-1.33;70.95
76128;BME280;64873;50.102;14.434;2024-01-15T07:23:53;97610.66;;;-1.26;71.85
76128;BME280;64873;50.102;14.434;2024-01-15T07:26:19;97615.34;;;-1.07;71.57
76128;BME280;64873;50.102;14.434;2024-01-15T07:28:44;97614.72;;;-1.09;71.83
76128;BME280;64873;50.102;14.434;2024-01-15T07:31:10;97623.94;;;-1.13;70.97
76128;BME280;64873;50.102;14.434;2024-01-15T07:33:35;97614.56;;;-1.22;72.11
76128;BME280;64873;50.102;14.434;2024-01-15T07:36:00;97606.66;;;-1.08;71.29
76128;BME280;64873;50.102;14.434;2024-01-15T07:38:28;97621.72;;;-0.95;70.84
76128;BME280;64873;50.102;14.434;2024-01-15T07:40:53;97626.53;;;-0.98;71.29
76128;BME280;64873;50.102;14.434;2024-01-15T07:43:19;97615.34;;;-1.07;71.44
76128;BME280;64873;50.102;14.434;2024-01-15T07:45:44;97610.00;;;-1.14;70.98
76128;BME280;64873;50.102;14.434;2024-01-15T07:48:10;97599.72;;;-1.15;70.58
76128;BME280;64873;50.102;14.434;2024-01-15T07:50:36;97613.97;;;-1.03;70.47
76128;BME280;64873;50.102;14.434;2024-01-15T07:53:01;97609.00;;;-0.98;69.57
76128;BME280;64873;50.102;14.434;2024-01-15T07:55:27;97610.97;;;-1.00;69.68
76128;BME280;64873;50.102;14.434;2024-01-15T07:57:52;97598.09;;;-0.80;69.46
76128;BME280;64873;50.102;14.434;2024-01-15T08:00:18;97591.31;;;-0.74;69.90
76128;BME280;64873;50.102;14.434;2024-01-15T08:02:44;97601.78;;;-0.74;68.79
76128;BME280;64873;50.102;14.434;2024-01-15T08:05:09;97576.66;;;-0.84;69.03
76128;BME280;64873;50.102;14.434;2024-01-15T08:07:35;97592.03;;;-0.59;68.64
76128;BME280;64873;50.102;14.434;2024-01-15T08:10:00;97586.19;;;-0.61;67.43
76128;BME280;64873;50.102;14.434;2024-01-15T08:12:26;97590.63;;;-0.40;67.32
76128;BME280;64873;50.102;14.434;2024-01-15T08:14:51;97593.28;;;-0.34;68.00
76128;BME280;64873;50.102;14.434;2024-01-15T08:17:16;97589.16;;;-0.43;67.13
76128;BME280;64873;50.102;14.434;2024-01-15T08:19:42;97596.53;;;-0.32;66.74
76128;BME280;64873;50.102;14.434;2024-01-15T08:22:08;97586.34;;;-0.41;67.30
76128;BME280;64873;50.102;14.434;2024-01-15T08:24:33;97579.94;;;-0.39;66.53
76128;BME280;64873;50.102;14.434;2024-01-15T08:26:58;97580.75;;;-0.38;67.24
76128;BME280;64873;50.102;14.434;2024-01-15T08:29:24;97585.53;;;-0.42;67.19
76128;BME280;64873;50.102;14.434;2024-01-15T08:31:50;97556.31;;;-0.60;67.92
76128;BME280;64873;50.102;14.434;2024-01-15T08:34:15;97572.50;;;-0.35;67.62
76128;BME280;64873;50.102;14.434;2024-01-15T08:36:41;97573.91;;;-0.33;67.64
76128;BME280;64873;50.102;14.434;2024-01-15T08:39:07;97566.91;;;-0.25;67.07
76128;BME280;64873;50.102;14.434;2024-01-15T08:41:34;97544.25;;;-0.33;67.09
76128;BME280;64873;50.102;14.434;2024-01-15T08:44:00;97552.66;;;-0.16;66.97
76128;BME280;64873;50.102;14.434;2024-01-15T08:46:25;97565.63;;;-0.08;65.76
76128;BME280;64873;50.102;14.434;2024-01-15T08:48:50;97564.78;;;-0.15;66.32
76128;BME280;64873;50.102;14.434;2024-01-15T08:51:16;97561.22;;;-0.01;66.03
76128;BME280;64873;50.102;14.434;2024-01-15T08:53:43;97554.31;;;-0.09;66.22
76128;BME280;64873;50.102;14.434;2024-01-15T08:56:09;97566.63;;;-0.09;64.42
76128;BME280;64873;50.102;14.434;2024-01-15T08:58:35;97564.38;;;-0.12;65.15
76128;BME280;64873;50.102;14.434;2024-01-15T09:01:00;97546.47;;;-0.30;65.68
76128;BME280;64873;50.102;14.434;2024-01-15T09:03:25;97580.75;;;-0.10;65.69
76128;BME280;64873;50.102;14.434;2024-01-15T09:05:51;97563.59;;;-0.06;64.88
76128;BME280;64873;50.102;14.434;2024-01-15T09:08:16;97552.13;;;-0.05;65.70
76128;BME280;64873;50.102;14.434;2024-01-15T09:11:00;97580.28;;;0.08;64.33
76128;BME280;64873;50.102;14.434;2024-01-15T09:13:28;97583.13;;;0.06;64.26
76128;BME280;64873;50.102;14.434;2024-01-15T09:15:53;97581.97;;;0.22;63.73
76128;BME280;64873;50.102;14.434;2024-01-15T09:18:19;97582.94;;;0.14;64.14
76128;BME280;64873;50.102;14.434;2024-01-15T09:20:44;97569.75;;;0.01;64.53
76128;BME280;64873;50.102;14.434;2024-01-15T09:23:09;97572.81;;;0.11;64.55
76128;BME280;64873;50.102;14.434;2024-01-15T09:25:35;97569.66;;;0.22;64.12
76128;BME280;64873;50.102;14.434;2024-01-15T09:28:00;97557.28;;;0.16;63.86
76128;BME280;64873;50.102;14.434;2024-01-15T09:30:26;97558.84;;;0.04;64.35
76128;BME280;64873;50.102;14.434;2024-01-15T09:32:51;97577.16;;;0.25;64.00
76128;BME280;64873;50.102;14.434;2024-01-15T09:35:17;97562.19;;;0.19;63.70
76128;BME280;64873;50.102;14.434;2024-01-15T09:37:42;97557.94;;;0.18;63.59
76128;BME280;64873;50.102;14.434;2024-01-15T09:40:12;97545.72;;;0.04;63.84
76128;BME280;64873;50.102;14.434;2024-01-15T09:42:39;97561.03;;;0.35;63.37
76128;BME280;64873;50.102;14.434;2024-01-15T09:45:06;97556.75;;;0.28;63.41
76128;BME280;64873;50.102;14.434;2024-01-15T09:47:31;97536.28;;;0.16;64.23
76128;BME280;64873;50.102;14.434;2024-01-15T09:49:57;97554.91;;;0.21;62.88
76128;BME280;64873;50.102;14.434;2024-01-15T09:52:24;97544.81;;;0.18;62.92
76128;BME280;64873;50.102;14.434;2024-01-15T09:54:50;97549.25;;;0.18;63.24
76128;BME280;64873;50.102;14.434;2024-01-15T09:57:16;97527.81;;;0.14;62.70
76128;BME280;64873;50.102;14.434;2024-01-15T09:59:42;97523.66;;;0.33;62.97
76128;BME280;64873;50.102;14.434;2024-01-15T10:02:09;97533.13;;;0.28;63.15
76128;BME280;64873;50.102;14.434;2024-01-15T10:04:39;97535.91;;;0.19;62.96
76128;BME280;64873;50.102;14.434;2024-01-15T10:07:05;97525.69;;;0.38;63.02
76128;BME280;64873;50.102;14.434;2024-01-15T10:09:33;97501.78;;;0.26;63.42
76128;BME280;64873;50.102;14.434;2024-01-15T10:11:58;97499.97;;;0.26;62.29
76128;BME280;64873;50.102;14.434;2024-01-15T10:14:24;97520.81;;;0.35;62.34
76128;BME280;64873;50.102;14.434;2024-01-15T10:16:49;97501.22;;;0.31;62.51
76128;BME280;64873;50.102;14.434;2024-01-15T10:19:15;97522.06;;;0.39;63.06
76128;BME280;64873;50.102;14.434;2024-01-15T10:21:40;97511.31;;;0.34;62.53
76128;BME280;64873;50.102;14.434;2024-01-15T10:24:06;97507.31;;;0.38;62.08
76128;BME280;64873;50.102;14.434;2024-01-15T10:26:32;97493.97;;;0.39;62.90
76128;BME280;64873;50.102;14.434;2024-01-15T10:29:00;97493.34;;;0.31;62.39
76128;BME280;64873;50.102;14.434;2024-01-15T10:31:26;97493.56;;;0.36;62.72
76128;BME280;64873;50.102;14.434;2024-01-15T10:33:52;97481.41;;;0.35;62.19
76128;BME280;64873;50.102;14.434;2024-01-15T10:36:18;97494.00;;;0.46;62.20
76128;BME280;64873;50.102;14.434;2024-01-15T10:38:44;97490.00;;;0.57;62.33
76128;BME280;64873;50.102;14.434;2024-01-15T10:41:10;97481.50;;;0.48;62.17
76128;BME280;64873;50.102;14.434;2024-01-15T10:43:35;97500.97;;;0.73;62.30
76128;BME280;64873;50.102;14.434;2024-01-15T10:46:01;97473.41;;;0.56;61.84
76128;BME280;64873;50.102;14.434;2024-01-15T10:48:27;97483.56;;;0.66;61.11
76128;BME280;64873;50.102;14.434;2024-01-15T10:50:56;97498.56;;;0.78;61.24
76128;BME280;64873;50.102;14.434;2024-01-15T10:53:23;97503.84;;;0.85;60.76
76128;BME280;64873;50.102;14.434;2024-01-15T10:55:50;97482.69;;;0.52;60.97
76128;BME280;64873;50.102;14.434;2024-01-15T10:58:16;97507.69;;;0.83;60.68
76128;BME280;64873;50.102;14.434;2024-01-15T11:00:43;97497.31;;;0.68;60.81
76128;BME280;64873;50.102;14.434;2024-01-15T11:03:09;97499.81;;;0.89;61.00
76128;BME280;64873;50.102;14.434;2024-01-15T11:05:39;97509.53;;;0.89;60.29
76128;BME280;64873;50.102;14.434;2024-01-15T11:08:08;97486.19;;;0.59;60.88
76128;BME280;64873;50.102;14.434;2024-01-15T11:10:52;97501.34;;;0.70;60.97
76128;BME280;64873;50.102;14.434;2024-01-15T11:13:22;97491.69;;;0.71;60.91
76128;BME280;64873;50.102;14.434;2024-01-15T11:16:06;97479.13;;;0.73;60.84
76128;BME280;64873;50.102;14.434;2024-01-15T11:18:35;97498.56;;;0.85;60.22
76128;BME280;64873;50.102;14.434;2024-01-15T11:24:02;97504.28;;;1.02;60.07
76128;BME280;64873;50.102;14.434;2024-01-15T11:34:10;97490.53;;;1.00;61.14
76128;BME280;64873;50.102;14.434;2024-01-15T11:39:40;97508.31;;;1.04;60.58
76128;BME280;64873;50.102;14.434;2024-01-15T11:42:08;97492.13;;;0.94;60.73
76128;BME280;64873;50.102;14.434;2024-01-15T11:44:34;97498.38;;;0.93;61.17
76128;BME280;64873;50.102;14.434;2024-01-15T11:47:04;97499.03;;;1.02;61.68
76128;BME280;64873;50.102;14.434;2024-01-15T11:49:59;97498.19;;;0.95;60.92
76128;BME280;64873;50.102;14.434;2024-01-15T11:52:26;97488.03;;;0.78;61.76
76128;BME280;64873;50.102;14.434;2024-01-15T11:55:19;97473.88;;;0.79;60.81
76128;BME280;64873;50.102;14.434;2024-01-15T11:57:52;97482.00;;;0.85;61.51
76128;BME280;64873;50.102;14.434;2024-01-15T12:00:20;97492.53;;;0.98;61.08
76128;BME280;64873;50.102;14.434;2024-01-15T12:02:47;97474.09;;;0.85;61.54
76128;BME280;64873;50.102;14.434;2024-01-15T12:05:14;97483.03;;;0.97;61.02
76128;BME280;64873;50.102;14.434;2024-01-15T12:07:44;97479.59;;;1.03;61.11
76128;BME280;64873;50.102;14.434;2024-01-15T12:10:17;97470.69;;;0.97;61.31
76128;BME280;64873;50.102;14.434;2024-01-15T12:15:21;97483.00;;;0.84;61.82
76128;BME280;64873;50.102;14.434;2024-01-15T12:17:46;97471.66;;;0.76;61.61
76128;BME280;64873;50.102;14.434;2024-01-15T12:20:12;97471.06;;;0.81;61.85
76128;BME280;64873;50.102;14.434;2024-01-15T12:22:38;97471.84;;;0.82;61.68
76128;BME280;64873;50.102;14.434;2024-01-15T12:25:04;97475.09;;;0.77;62.70
76128;BME280;64873;50.102;14.434;2024-01-15T12:27:29;97465.78;;;0.74;61.64
76128;BME280;64873;50.102;14.434;2024-01-15T12:29:55;97466.56;;;0.62;62.09
76128;BME280;64873;50.102;14.434;2024-01-15T12:32:20;97479.13;;;0.66;62.02
76128;BME280;64873;50.102;14.434;2024-01-15T12:34:49;97476.69;;;0.65;63.31
76128;BME280;64873;50.102;14.434;2024-01-15T12:37:14;97451.19;;;0.59;62.90
76128;BME280;64873;50.102;14.434;2024-01-15T12:39:43;97475.91;;;0.71;62.58
76128;BME280;64873;50.102;14.434;2024-01-15T12:42:09;97484.38;;;0.66;62.16
76128;BME280;64873;50.102;14.434;2024-01-15T12:44:35;97484.81;;;0.76;63.78
76128;BME280;64873;50.102;14.434;2024-01-15T12:47:06;97463.50;;;0.58;62.24
76128;BME280;64873;50.102;14.434;2024-01-15T12:49:32;97451.56;;;0.49;62.86
76128;BME280;64873;50.102;14.434;2024-01-15T12:51:58;97456.41;;;0.52;63.12
76128;BME280;64873;50.102;14.434;2024-01-15T12:54:24;97479.50;;;0.63;62.14
76128;BME280;64873;50.102;14.434;2024-01-15T12:56:50;97471.59;;;0.50;62.32
76128;BME280;64873;50.102;14.434;2024-01-15T12:59:16;97482.13;;;0.63;62.39
76128;BME280;64873;50.102;14.434;2024-01-15T13:01:42;97487.16;;;0.58;62.22
76128;BME280;64873;50.102;14.434;2024-01-15T13:04:08;97490.44;;;0.73;62.21